Aérodrome :
LOGIN :

S'inscrire | Disclaimer

   EN    FR    IT 

 










Légende :    VFR   VFR Marginal   IFR   IFR Intensif   IFR Très Intensif
Visi : 
Plafond : 
>= 8 km
>= 3000ft
5 à 8 km
1000 à 3000 ft
1500m à 5 km
500 à 1000 ft
800 à 1500m
200 à 500 ft
< 800m
< 200 ft
Symboles :   Orages  Brouillard  Fortes neiges  Fortes précipitations  Vent > 20 kt
SIGMETs :   Divers  Orages  Givrage  Turbulence  Onde Orograph.  Cendres Volcan.






- Altitude de l'aérodrome : 117 ft
- Code IATA : NWI


EGSH - Norwich

DERNIER METAR :
  • 101920Z AUTO 04010KT 9999 FEW029/// 05/M01 Q1014

METARs EXPIRÉS :
  • 101850Z AUTO 04011KT 9999 SCT029/// 05/M01 Q1014
  • 101820Z AUTO 05014KT 9999 FEW029/// 06/M01 Q1014
  • 101750Z AUTO 06013KT 9999 FEW032/// 06/M01 Q1014 NOSIG
  • 101720Z 05014KT 9999 FEW032 06/M01 Q1014
  • 101650Z 05016KT 9999 FEW032 07/M01 Q1014

TAF TAF EGSH
Valide du 10 à 18h jusqu'au 11 à 03h UTC


101658Z 1018/1103 03009KT 9999 SCT025
ATIS : +44 1603 420 640



MET'MAP, la Météo Aéronautique d'un coup d'oeil ! - Copyright ORBIFLY Décembre 2007 - Disclaimer

ORBIFLY MET'MAP TEAM :

Programmation & Développement : Alexandra Zaïnal
Sur une idée originale de : Baudouin d'Aumeries
Assistance à la programmation : Marc-Olivier Méhu
Soutien technique & logistique : Manuel Goepfert

Contact : metmap@orbifly.com




SOURCES & CREDITS :

   NOAA